sensor_id;sensor_type;location;lat;lon;timestamp;P1;durP1;ratioP1;P2;durP2;ratioP2
16272;SDS011;8244;50.044;9.006;2022-12-17T00:04:41;52.37;;;20.07;;
16272;SDS011;8244;50.044;9.006;2022-12-17T00:10:01;45.10;;;18.67;;
16272;SDS011;8244;50.044;9.006;2022-12-17T00:15:25;45.07;;;18.80;;
16272;SDS011;8244;50.044;9.006;2022-12-17T00:20:50;47.17;;;17.10;;
16272;SDS011;8244;50.044;9.006;2022-12-17T00:26:09;46.77;;;19.17;;
16272;SDS011;8244;50.044;9.006;2022-12-17T00:31:30;52.23;;;19.30;;
16272;SDS011;8244;50.044;9.006;2022-12-17T00:36:50;53.43;;;20.90;;
16272;SDS011;8244;50.044;9.006;2022-12-17T00:42:09;63.70;;;22.60;;
16272;SDS011;8244;50.044;9.006;2022-12-17T00:47:30;71.73;;;21.97;;
16272;SDS011;8244;50.044;9.006;2022-12-17T00:52:50;88.60;;;22.20;;
16272;SDS011;8244;50.044;9.006;2022-12-17T00:58:10;59.77;;;21.10;;
16272;SDS011;8244;50.044;9.006;2022-12-17T01:03:30;61.10;;;23.17;;
16272;SDS011;8244;50.044;9.006;2022-12-17T01:08:50;64.63;;;22.23;;
16272;SDS011;8244;50.044;9.006;2022-12-17T01:14:09;99.40;;;23.17;;
16272;SDS011;8244;50.044;9.006;2022-12-17T01:19:33;68.40;;;21.97;;
16272;SDS011;8244;50.044;9.006;2022-12-17T01:24:53;88.67;;;23.53;;
16272;SDS011;8244;50.044;9.006;2022-12-17T01:30:12;66.80;;;21.83;;
16272;SDS011;8244;50.044;9.006;2022-12-17T01:35:33;57.53;;;20.53;;
16272;SDS011;8244;50.044;9.006;2022-12-17T01:40:52;60.70;;;23.00;;
16272;SDS011;8244;50.044;9.006;2022-12-17T01:46:20;61.43;;;20.53;;
16272;SDS011;8244;50.044;9.006;2022-12-17T01:51:53;85.93;;;21.37;;
16272;SDS011;8244;50.044;9.006;2022-12-17T01:57:12;118.97;;;24.23;;
16272;SDS011;8244;50.044;9.006;2022-12-17T02:02:33;54.73;;;20.10;;
16272;SDS011;8244;50.044;9.006;2022-12-17T02:07:55;60.00;;;21.00;;
16272;SDS011;8244;50.044;9.006;2022-12-17T02:13:23;53.40;;;20.00;;
16272;SDS011;8244;50.044;9.006;2022-12-17T02:18:51;73.60;;;20.20;;
16272;SDS011;8244;50.044;9.006;2022-12-17T02:24:35;46.07;;;18.57;;
16272;SDS011;8244;50.044;9.006;2022-12-17T02:30:05;47.70;;;19.13;;
16272;SDS011;8244;50.044;9.006;2022-12-17T02:35:27;47.63;;;17.90;;
16272;SDS011;8244;50.044;9.006;2022-12-17T02:40:49;45.13;;;16.97;;
16272;SDS011;8244;50.044;9.006;2022-12-17T02:46:12;52.93;;;19.43;;
16272;SDS011;8244;50.044;9.006;2022-12-17T02:51:31;49.50;;;18.77;;
16272;SDS011;8244;50.044;9.006;2022-12-17T02:56:51;50.37;;;19.53;;
16272;SDS011;8244;50.044;9.006;2022-12-17T03:02:23;49.50;;;18.57;;
16272;SDS011;8244;50.044;9.006;2022-12-17T03:07:43;43.53;;;18.67;;
16272;SDS011;8244;50.044;9.006;2022-12-17T03:13:02;46.67;;;19.70;;
16272;SDS011;8244;50.044;9.006;2022-12-17T03:18:23;73.40;;;22.07;;
16272;SDS011;8244;50.044;9.006;2022-12-17T03:23:42;143.43;;;23.17;;
16272;SDS011;8244;50.044;9.006;2022-12-17T03:29:02;57.40;;;20.47;;
16272;SDS011;8244;50.044;9.006;2022-12-17T03:34:22;144.53;;;24.50;;
16272;SDS011;8244;50.044;9.006;2022-12-17T03:39:42;58.73;;;20.47;;
16272;SDS011;8244;50.044;9.006;2022-12-17T03:45:01;80.53;;;21.20;;
16272;SDS011;8244;50.044;9.006;2022-12-17T03:50:23;93.60;;;21.10;;
16272;SDS011;8244;50.044;9.006;2022-12-17T03:55:42;51.83;;;18.97;;
16272;SDS011;8244;50.044;9.006;2022-12-17T04:01:01;47.80;;;19.00;;
16272;SDS011;8244;50.044;9.006;2022-12-17T04:06:22;51.57;;;19.50;;
16272;SDS011;8244;50.044;9.006;2022-12-17T04:11:42;48.30;;;18.40;;
16272;SDS011;8244;50.044;9.006;2022-12-17T04:17:01;50.73;;;18.80;;
16272;SDS011;8244;50.044;9.006;2022-12-17T04:22:22;81.00;;;20.93;;
16272;SDS011;8244;50.044;9.006;2022-12-17T04:27:41;54.63;;;19.90;;
16272;SDS011;8244;50.044;9.006;2022-12-17T04:33:01;51.13;;;19.07;;
16272;SDS011;8244;50.044;9.006;2022-12-17T04:38:22;51.40;;;19.00;;
16272;SDS011;8244;50.044;9.006;2022-12-17T04:43:41;49.63;;;18.70;;
16272;SDS011;8244;50.044;9.006;2022-12-17T04:49:00;46.57;;;17.83;;
16272;SDS011;8244;50.044;9.006;2022-12-17T04:54:21;50.70;;;18.60;;
16272;SDS011;8244;50.044;9.006;2022-12-17T04:59:41;56.70;;;18.90;;
16272;SDS011;8244;50.044;9.006;2022-12-17T05:05:00;47.10;;;18.53;;
16272;SDS011;8244;50.044;9.006;2022-12-17T05:10:21;52.67;;;18.83;;
16272;SDS011;8244;50.044;9.006;2022-12-17T05:15:40;64.33;;;19.10;;
16272;SDS011;8244;50.044;9.006;2022-12-17T05:20:59;49.10;;;17.80;;
16272;SDS011;8244;50.044;9.006;2022-12-17T05:26:29;44.00;;;17.63;;
16272;SDS011;8244;50.044;9.006;2022-12-17T05:31:48;71.53;;;17.57;;
16272;SDS011;8244;50.044;9.006;2022-12-17T05:37:08;49.83;;;18.07;;
16272;SDS011;8244;50.044;9.006;2022-12-17T05:42:28;44.60;;;17.63;;
16272;SDS011;8244;50.044;9.006;2022-12-17T05:47:48;64.50;;;18.57;;
16272;SDS011;8244;50.044;9.006;2022-12-17T05:53:07;164.50;;;20.93;;
16272;SDS011;8244;50.044;9.006;2022-12-17T05:58:28;128.97;;;18.77;;
16272;SDS011;8244;50.044;9.006;2022-12-17T06:03:48;174.57;;;20.70;;
16272;SDS011;8244;50.044;9.006;2022-12-17T06:09:07;119.30;;;17.43;;
16272;SDS011;8244;50.044;9.006;2022-12-17T06:14:31;43.90;;;15.30;;
16272;SDS011;8244;50.044;9.006;2022-12-17T06:19:50;55.10;;;15.47;;
16272;SDS011;8244;50.044;9.006;2022-12-17T06:25:09;70.93;;;15.63;;
16272;SDS011;8244;50.044;9.006;2022-12-17T06:30:30;49.37;;;14.87;;
16272;SDS011;8244;50.044;9.006;2022-12-17T06:35:50;40.33;;;14.53;;
16272;SDS011;8244;50.044;9.006;2022-12-17T06:41:10;35.23;;;15.37;;
16272;SDS011;8244;50.044;9.006;2022-12-17T06:46:42;46.77;;;15.13;;
16272;SDS011;8244;50.044;9.006;2022-12-17T06:52:02;40.17;;;15.60;;
16272;SDS011;8244;50.044;9.006;2022-12-17T06:57:20;45.73;;;14.87;;
16272;SDS011;8244;50.044;9.006;2022-12-17T07:02:43;45.97;;;14.27;;
16272;SDS011;8244;50.044;9.006;2022-12-17T07:08:03;135.57;;;17.93;;
16272;SDS011;8244;50.044;9.006;2022-12-17T07:13:22;36.80;;;13.27;;
16272;SDS011;8244;50.044;9.006;2022-12-17T07:18:43;167.70;;;19.60;;
16272;SDS011;8244;50.044;9.006;2022-12-17T07:24:02;43.97;;;16.57;;
16272;SDS011;8244;50.044;9.006;2022-12-17T07:29:22;54.37;;;14.00;;
16272;SDS011;8244;50.044;9.006;2022-12-17T07:34:43;43.20;;;15.90;;
16272;SDS011;8244;50.044;9.006;2022-12-17T07:40:03;32.43;;;15.07;;
16272;SDS011;8244;50.044;9.006;2022-12-17T07:45:23;44.33;;;11.70;;
16272;SDS011;8244;50.044;9.006;2022-12-17T07:50:46;106.67;;;12.67;;
16272;SDS011;8244;50.044;9.006;2022-12-17T07:56:06;98.53;;;13.93;;
16272;SDS011;8244;50.044;9.006;2022-12-17T08:01:26;46.63;;;13.87;;
16272;SDS011;8244;50.044;9.006;2022-12-17T08:06:47;80.63;;;15.77;;
16272;SDS011;8244;50.044;9.006;2022-12-17T08:12:07;69.60;;;13.83;;
16272;SDS011;8244;50.044;9.006;2022-12-17T08:17:26;121.20;;;16.07;;
16272;SDS011;8244;50.044;9.006;2022-12-17T08:22:47;38.90;;;14.67;;
16272;SDS011;8244;50.044;9.006;2022-12-17T08:28:07;59.67;;;14.77;;
16272;SDS011;8244;50.044;9.006;2022-12-17T08:33:27;38.23;;;13.67;;
16272;SDS011;8244;50.044;9.006;2022-12-17T08:38:47;38.33;;;13.77;;
16272;SDS011;8244;50.044;9.006;2022-12-17T08:44:07;109.23;;;15.73;;
16272;SDS011;8244;50.044;9.006;2022-12-17T08:49:29;147.50;;;18.30;;
16272;SDS011;8244;50.044;9.006;2022-12-17T08:54:50;46.30;;;14.93;;
16272;SDS011;8244;50.044;9.006;2022-12-17T09:00:10;32.30;;;13.13;;
16272;SDS011;8244;50.044;9.006;2022-12-17T09:05:30;34.63;;;13.63;;
16272;SDS011;8244;50.044;9.006;2022-12-17T09:10:51;40.70;;;12.97;;
16272;SDS011;8244;50.044;9.006;2022-12-17T09:16:10;43.47;;;14.17;;
16272;SDS011;8244;50.044;9.006;2022-12-17T09:21:29;55.33;;;14.20;;
16272;SDS011;8244;50.044;9.006;2022-12-17T09:26:51;48.87;;;13.80;;
16272;SDS011;8244;50.044;9.006;2022-12-17T09:32:10;50.10;;;13.67;;
16272;SDS011;8244;50.044;9.006;2022-12-17T09:37:29;57.73;;;15.20;;
16272;SDS011;8244;50.044;9.006;2022-12-17T09:42:50;35.43;;;14.63;;
16272;SDS011;8244;50.044;9.006;2022-12-17T09:48:16;49.17;;;14.60;;
16272;SDS011;8244;50.044;9.006;2022-12-17T09:53:41;34.37;;;14.50;;
16272;SDS011;8244;50.044;9.006;2022-12-17T09:59:04;54.93;;;14.17;;
16272;SDS011;8244;50.044;9.006;2022-12-17T10:04:27;38.23;;;14.47;;
16272;SDS011;8244;50.044;9.006;2022-12-17T10:09:50;42.90;;;13.87;;
16272;SDS011;8244;50.044;9.006;2022-12-17T10:15:13;33.57;;;14.23;;
16272;SDS011;8244;50.044;9.006;2022-12-17T10:20:34;38.80;;;14.50;;
16272;SDS011;8244;50.044;9.006;2022-12-17T10:25:57;31.30;;;14.93;;
16272;SDS011;8244;50.044;9.006;2022-12-17T10:31:18;36.23;;;15.80;;
16272;SDS011;8244;50.044;9.006;2022-12-17T10:36:42;34.40;;;16.73;;
16272;SDS011;8244;50.044;9.006;2022-12-17T10:42:18;33.20;;;15.40;;
16272;SDS011;8244;50.044;9.006;2022-12-17T10:47:42;34.33;;;15.47;;
16272;SDS011;8244;50.044;9.006;2022-12-17T10:53:02;42.47;;;18.07;;
16272;SDS011;8244;50.044;9.006;2022-12-17T10:58:24;36.63;;;17.27;;
16272;SDS011;8244;50.044;9.006;2022-12-17T11:03:49;35.37;;;18.00;;
16272;SDS011;8244;50.044;9.006;2022-12-17T11:09:12;37.70;;;19.13;;
16272;SDS011;8244;50.044;9.006;2022-12-17T11:14:39;37.37;;;17.63;;
16272;SDS011;8244;50.044;9.006;2022-12-17T11:20:07;33.13;;;17.17;;
16272;SDS011;8244;50.044;9.006;2022-12-17T11:25:39;32.70;;;17.13;;
16272;SDS011;8244;50.044;9.006;2022-12-17T11:31:06;34.03;;;18.57;;
16272;SDS011;8244;50.044;9.006;2022-12-17T11:36:41;32.53;;;17.37;;
16272;SDS011;8244;50.044;9.006;2022-12-17T11:42:06;32.03;;;16.97;;
16272;SDS011;8244;50.044;9.006;2022-12-17T11:47:34;35.00;;;17.83;;
16272;SDS011;8244;50.044;9.006;2022-12-17T11:53:03;31.97;;;16.77;;
16272;SDS011;8244;50.044;9.006;2022-12-17T11:58:33;30.20;;;16.43;;
16272;SDS011;8244;50.044;9.006;2022-12-17T12:09:56;33.37;;;17.90;;
16272;SDS011;8244;50.044;9.006;2022-12-17T12:15:21;28.90;;;16.07;;
16272;SDS011;8244;50.044;9.006;2022-12-17T12:20:49;27.10;;;16.13;;
16272;SDS011;8244;50.044;9.006;2022-12-17T12:26:23;32.20;;;17.30;;
16272;SDS011;8244;50.044;9.006;2022-12-17T12:31:49;32.03;;;17.30;;
16272;SDS011;8244;50.044;9.006;2022-12-17T12:37:17;31.53;;;16.77;;
16272;SDS011;8244;50.044;9.006;2022-12-17T12:42:40;30.50;;;17.03;;
16272;SDS011;8244;50.044;9.006;2022-12-17T12:48:04;26.80;;;15.93;;
16272;SDS011;8244;50.044;9.006;2022-12-17T12:53:28;30.27;;;16.87;;
16272;SDS011;8244;50.044;9.006;2022-12-17T12:58:48;28.87;;;15.60;;
16272;SDS011;8244;50.044;9.006;2022-12-17T13:04:14;28.60;;;16.10;;
16272;SDS011;8244;50.044;9.006;2022-12-17T13:09:46;30.67;;;16.50;;
16272;SDS011;8244;50.044;9.006;2022-12-17T13:14:52;29.50;;;17.40;;
16272;SDS011;8244;50.044;9.006;2022-12-17T13:19:59;31.07;;;17.47;;
16272;SDS011;8244;50.044;9.006;2022-12-17T13:25:20;31.00;;;17.33;;
16272;SDS011;8244;50.044;9.006;2022-12-17T13:30:30;33.00;;;18.77;;
16272;SDS011;8244;50.044;9.006;2022-12-17T13:35:36;35.67;;;18.33;;
16272;SDS011;8244;50.044;9.006;2022-12-17T13:40:44;31.93;;;18.63;;
16272;SDS011;8244;50.044;9.006;2022-12-17T13:45:54;32.27;;;19.20;;
16272;SDS011;8244;50.044;9.006;2022-12-17T13:50:57;32.03;;;18.63;;
16272;SDS011;8244;50.044;9.006;2022-12-17T13:56:01;33.90;;;19.97;;
16272;SDS011;8244;50.044;9.006;2022-12-17T14:01:04;34.90;;;19.77;;
16272;SDS011;8244;50.044;9.006;2022-12-17T14:06:07;29.90;;;17.93;;
16272;SDS011;8244;50.044;9.006;2022-12-17T14:11:11;34.20;;;17.83;;
16272;SDS011;8244;50.044;9.006;2022-12-17T14:16:32;32.60;;;19.27;;
16272;SDS011;8244;50.044;9.006;2022-12-17T14:21:33;31.77;;;18.40;;
16272;SDS011;8244;50.044;9.006;2022-12-17T14:26:45;27.70;;;16.97;;
16272;SDS011;8244;50.044;9.006;2022-12-17T14:31:54;30.33;;;18.52;;
16272;SDS011;8244;50.044;9.006;2022-12-17T14:36:57;28.53;;;16.73;;
16272;SDS011;8244;50.044;9.006;2022-12-17T14:42:06;27.13;;;19.10;;
16272;SDS011;8244;50.044;9.006;2022-12-17T14:47:29;25.27;;;14.97;;
16272;SDS011;8244;50.044;9.006;2022-12-17T14:52:33;29.10;;;18.88;;
16272;SDS011;8244;50.044;9.006;2022-12-17T14:57:40;28.50;;;16.63;;
16272;SDS011;8244;50.044;9.006;2022-12-17T15:02:43;36.80;;;17.23;;
16272;SDS011;8244;50.044;9.006;2022-12-17T15:07:50;40.58;;;17.25;;
16272;SDS011;8244;50.044;9.006;2022-12-17T15:12:51;29.40;;;14.87;;
16272;SDS011;8244;50.044;9.006;2022-12-17T15:17:54;46.17;;;18.40;;
16272;SDS011;8244;50.044;9.006;2022-12-17T15:22:56;49.80;;;16.87;;
16272;SDS011;8244;50.044;9.006;2022-12-17T15:27:57;41.33;;;16.60;;
16272;SDS011;8244;50.044;9.006;2022-12-17T15:33:00;32.00;;;17.63;;
16272;SDS011;8244;50.044;9.006;2022-12-17T15:38:02;41.97;;;17.37;;
16272;SDS011;8244;50.044;9.006;2022-12-17T15:43:05;32.07;;;16.60;;
16272;SDS011;8244;50.044;9.006;2022-12-17T15:48:13;41.00;;;16.63;;
16272;SDS011;8244;50.044;9.006;2022-12-17T15:53:16;37.72;;;18.85;;
16272;SDS011;8244;50.044;9.006;2022-12-17T15:58:18;37.47;;;15.87;;
16272;SDS011;8244;50.044;9.006;2022-12-17T16:03:21;28.03;;;15.60;;
16272;SDS011;8244;50.044;9.006;2022-12-17T16:08:23;28.70;;;16.20;;
16272;SDS011;8244;50.044;9.006;2022-12-17T16:13:24;30.27;;;15.70;;
16272;SDS011;8244;50.044;9.006;2022-12-17T16:18:27;27.97;;;15.97;;
16272;SDS011;8244;50.044;9.006;2022-12-17T16:23:29;31.60;;;18.23;;
16272;SDS011;8244;50.044;9.006;2022-12-17T16:28:31;27.37;;;15.57;;
16272;SDS011;8244;50.044;9.006;2022-12-17T16:33:36;42.38;;;27.83;;
16272;SDS011;8244;50.044;9.006;2022-12-17T16:38:41;41.53;;;24.07;;
16272;SDS011;8244;50.044;9.006;2022-12-17T16:43:44;42.43;;;24.90;;
16272;SDS011;8244;50.044;9.006;2022-12-17T16:48:48;42.20;;;24.03;;
16272;SDS011;8244;50.044;9.006;2022-12-17T16:53:49;36.40;;;22.37;;
16272;SDS011;8244;50.044;9.006;2022-12-17T16:58:51;43.73;;;21.23;;
16272;SDS011;8244;50.044;9.006;2022-12-17T17:03:54;36.20;;;21.17;;
16272;SDS011;8244;50.044;9.006;2022-12-17T17:08:57;46.37;;;22.77;;
16272;SDS011;8244;50.044;9.006;2022-12-17T17:13:58;40.27;;;21.97;;
16272;SDS011;8244;50.044;9.006;2022-12-17T17:19:02;40.73;;;22.33;;
16272;SDS011;8244;50.044;9.006;2022-12-17T17:24:05;51.03;;;23.27;;
16272;SDS011;8244;50.044;9.006;2022-12-17T17:29:09;48.13;;;23.57;;
16272;SDS011;8244;50.044;9.006;2022-12-17T17:34:13;54.37;;;22.63;;
16272;SDS011;8244;50.044;9.006;2022-12-17T17:39:15;46.90;;;24.63;;
16272;SDS011;8244;50.044;9.006;2022-12-17T17:44:16;45.03;;;22.90;;
16272;SDS011;8244;50.044;9.006;2022-12-17T17:49:19;64.23;;;22.87;;
16272;SDS011;8244;50.044;9.006;2022-12-17T17:54:21;66.00;;;24.00;;
16272;SDS011;8244;50.044;9.006;2022-12-17T17:59:23;75.70;;;23.17;;
16272;SDS011;8244;50.044;9.006;2022-12-17T18:04:26;53.23;;;24.60;;
16272;SDS011;8244;50.044;9.006;2022-12-17T18:09:27;80.80;;;22.43;;
16272;SDS011;8244;50.044;9.006;2022-12-17T18:14:29;45.20;;;22.53;;
16272;SDS011;8244;50.044;9.006;2022-12-17T18:19:32;54.67;;;22.77;;
16272;SDS011;8244;50.044;9.006;2022-12-17T18:24:34;44.70;;;21.60;;
16272;SDS011;8244;50.044;9.006;2022-12-17T18:29:35;42.17;;;21.37;;
16272;SDS011;8244;50.044;9.006;2022-12-17T18:34:38;54.37;;;23.73;;
16272;SDS011;8244;50.044;9.006;2022-12-17T18:39:40;46.77;;;22.30;;
16272;SDS011;8244;50.044;9.006;2022-12-17T18:44:41;44.10;;;22.23;;
16272;SDS011;8244;50.044;9.006;2022-12-17T18:49:44;46.50;;;23.03;;
16272;SDS011;8244;50.044;9.006;2022-12-17T18:54:46;49.37;;;23.20;;
16272;SDS011;8244;50.044;9.006;2022-12-17T18:59:48;45.77;;;22.10;;
16272;SDS011;8244;50.044;9.006;2022-12-17T19:04:51;42.30;;;22.27;;
16272;SDS011;8244;50.044;9.006;2022-12-17T19:09:52;39.20;;;20.17;;
16272;SDS011;8244;50.044;9.006;2022-12-17T19:14:54;40.97;;;21.23;;
16272;SDS011;8244;50.044;9.006;2022-12-17T19:19:57;44.40;;;21.53;;
16272;SDS011;8244;50.044;9.006;2022-12-17T19:24:59;41.73;;;20.87;;
16272;SDS011;8244;50.044;9.006;2022-12-17T19:30:00;39.67;;;20.93;;
16272;SDS011;8244;50.044;9.006;2022-12-17T19:35:03;44.87;;;21.43;;
16272;SDS011;8244;50.044;9.006;2022-12-17T19:40:06;43.33;;;20.03;;
16272;SDS011;8244;50.044;9.006;2022-12-17T19:45:09;48.27;;;22.30;;
16272;SDS011;8244;50.044;9.006;2022-12-17T19:50:12;44.87;;;20.90;;
16272;SDS011;8244;50.044;9.006;2022-12-17T19:55:14;47.87;;;22.47;;
16272;SDS011;8244;50.044;9.006;2022-12-17T20:00:16;49.57;;;22.10;;
16272;SDS011;8244;50.044;9.006;2022-12-17T20:05:20;58.13;;;22.40;;
16272;SDS011;8244;50.044;9.006;2022-12-17T20:10:21;54.57;;;23.53;;
16272;SDS011;8244;50.044;9.006;2022-12-17T20:15:23;52.27;;;21.97;;
16272;SDS011;8244;50.044;9.006;2022-12-17T20:20:26;43.37;;;21.03;;
16272;SDS011;8244;50.044;9.006;2022-12-17T20:25:27;48.83;;;21.37;;
16272;SDS011;8244;50.044;9.006;2022-12-17T20:30:29;73.77;;;22.07;;
16272;SDS011;8244;50.044;9.006;2022-12-17T20:35:32;65.80;;;21.67;;
16272;SDS011;8244;50.044;9.006;2022-12-17T20:40:36;50.67;;;21.60;;
16272;SDS011;8244;50.044;9.006;2022-12-17T20:45:38;52.87;;;21.23;;
16272;SDS011;8244;50.044;9.006;2022-12-17T20:50:48;47.07;;;20.70;;
16272;SDS011;8244;50.044;9.006;2022-12-17T20:55:57;49.83;;;21.10;;
16272;SDS011;8244;50.044;9.006;2022-12-17T21:01:00;52.47;;;21.07;;
16272;SDS011;8244;50.044;9.006;2022-12-17T21:06:06;78.57;;;20.17;;
16272;SDS011;8244;50.044;9.006;2022-12-17T21:11:09;70.53;;;20.73;;
16272;SDS011;8244;50.044;9.006;2022-12-17T21:16:12;56.70;;;20.60;;
16272;SDS011;8244;50.044;9.006;2022-12-17T21:21:17;78.33;;;22.03;;
16272;SDS011;8244;50.044;9.006;2022-12-17T21:26:20;53.87;;;20.57;;
16272;SDS011;8244;50.044;9.006;2022-12-17T21:31:23;47.73;;;19.63;;
16272;SDS011;8244;50.044;9.006;2022-12-17T21:36:27;144.10;;;21.30;;
16272;SDS011;8244;50.044;9.006;2022-12-17T21:41:38;42.80;;;19.10;;
16272;SDS011;8244;50.044;9.006;2022-12-17T21:46:42;43.17;;;18.40;;
16272;SDS011;8244;50.044;9.006;2022-12-17T21:51:45;45.03;;;18.40;;
16272;SDS011;8244;50.044;9.006;2022-12-17T21:56:46;37.83;;;17.30;;
16272;SDS011;8244;50.044;9.006;2022-12-17T22:01:48;37.13;;;17.03;;
16272;SDS011;8244;50.044;9.006;2022-12-17T22:06:52;39.37;;;16.73;;
16272;SDS011;8244;50.044;9.006;2022-12-17T22:11:54;38.67;;;18.23;;
16272;SDS011;8244;50.044;9.006;2022-12-17T22:17:17;37.77;;;16.67;;
16272;SDS011;8244;50.044;9.006;2022-12-17T22:22:20;36.13;;;17.53;;
16272;SDS011;8244;50.044;9.006;2022-12-17T22:27:21;31.90;;;15.97;;
16272;SDS011;8244;50.044;9.006;2022-12-17T22:32:23;35.13;;;16.80;;
16272;SDS011;8244;50.044;9.006;2022-12-17T22:37:43;43.53;;;18.50;;
16272;SDS011;8244;50.044;9.006;2022-12-17T22:42:47;45.33;;;19.00;;
16272;SDS011;8244;50.044;9.006;2022-12-17T22:48:09;42.97;;;18.13;;
16272;SDS011;8244;50.044;9.006;2022-12-17T22:53:13;40.50;;;18.50;;
16272;SDS011;8244;50.044;9.006;2022-12-17T22:58:14;42.53;;;17.40;;
16272;SDS011;8244;50.044;9.006;2022-12-17T23:03:16;39.17;;;17.13;;
16272;SDS011;8244;50.044;9.006;2022-12-17T23:08:19;43.00;;;18.73;;
16272;SDS011;8244;50.044;9.006;2022-12-17T23:13:21;41.97;;;18.97;;
16272;SDS011;8244;50.044;9.006;2022-12-17T23:18:23;39.07;;;16.87;;
16272;SDS011;8244;50.044;9.006;2022-12-17T23:23:26;37.07;;;16.37;;
16272;SDS011;8244;50.044;9.006;2022-12-17T23:28:27;35.67;;;16.67;;
16272;SDS011;8244;50.044;9.006;2022-12-17T23:33:29;36.87;;;16.27;;
16272;SDS011;8244;50.044;9.006;2022-12-17T23:38:32;38.53;;;16.17;;
16272;SDS011;8244;50.044;9.006;2022-12-17T23:43:34;32.70;;;15.73;;
16272;SDS011;8244;50.044;9.006;2022-12-17T23:48:36;33.67;;;14.90;;
16272;SDS011;8244;50.044;9.006;2022-12-17T23:53:41;55.13;;;19.20;;
16272;SDS011;8244;50.044;9.006;2022-12-17T23:58:44;49.10;;;18.70;;
